sensor_id;sensor_type;location;lat;lon;timestamp;temperature;humidity
79356;SHT31;68825;51.978;5.654;2024-03-17T00:00:15;8.7;67.3
79356;SHT31;68825;51.978;5.654;2024-03-17T00:02:45;8.7;67.7
79356;SHT31;68825;51.978;5.654;2024-03-17T00:05:14;8.7;67.7
79356;SHT31;68825;51.978;5.654;2024-03-17T00:07:45;8.7;67.5
79356;SHT31;68825;51.978;5.654;2024-03-17T00:10:14;8.7;67.5
79356;SHT31;68825;51.978;5.654;2024-03-17T00:12:43;8.7;67.8
79356;SHT31;68825;51.978;5.654;2024-03-17T00:15:12;8.8;68.2
79356;SHT31;68825;51.978;5.654;2024-03-17T00:17:41;8.8;68.1
79356;SHT31;68825;51.978;5.654;2024-03-17T00:20:10;8.8;68.0
79356;SHT31;68825;51.978;5.654;2024-03-17T00:22:44;8.8;67.3
79356;SHT31;68825;51.978;5.654;2024-03-17T00:25:14;8.8;67.2
79356;SHT31;68825;51.978;5.654;2024-03-17T00:27:43;8.8;67.0
79356;SHT31;68825;51.978;5.654;2024-03-17T00:30:14;8.8;67.6
79356;SHT31;68825;51.978;5.654;2024-03-17T00:32:43;8.8;68.1
79356;SHT31;68825;51.978;5.654;2024-03-17T00:35:11;8.8;67.9
79356;SHT31;68825;51.978;5.654;2024-03-17T00:37:40;8.8;68.3
79356;SHT31;68825;51.978;5.654;2024-03-17T00:40:09;8.8;68.5
79356;SHT31;68825;51.978;5.654;2024-03-17T00:42:38;8.8;68.8
79356;SHT31;68825;51.978;5.654;2024-03-17T00:45:07;8.8;68.6
79356;SHT31;68825;51.978;5.654;2024-03-17T00:47:37;8.8;68.6
79356;SHT31;68825;51.978;5.654;2024-03-17T00:50:06;8.8;69.1
79356;SHT31;68825;51.978;5.654;2024-03-17T00:52:38;8.8;68.8
79356;SHT31;68825;51.978;5.654;2024-03-17T00:55:08;8.9;68.0
79356;SHT31;68825;51.978;5.654;2024-03-17T00:57:37;8.9;68.2
79356;SHT31;68825;51.978;5.654;2024-03-17T01:00:07;8.9;68.3
79356;SHT31;68825;51.978;5.654;2024-03-17T01:02:36;8.9;68.0
79356;SHT31;68825;51.978;5.654;2024-03-17T01:05:07;8.9;67.7
79356;SHT31;68825;51.978;5.654;2024-03-17T01:07:35;8.9;68.0
79356;SHT31;68825;51.978;5.654;2024-03-17T01:10:05;8.9;68.4
79356;SHT31;68825;51.978;5.654;2024-03-17T01:12:35;8.9;68.0
79356;SHT31;68825;51.978;5.654;2024-03-17T01:15:05;8.9;68.2
79356;SHT31;68825;51.978;5.654;2024-03-17T01:17:36;8.9;68.7
79356;SHT31;68825;51.978;5.654;2024-03-17T01:20:06;8.9;68.4
79356;SHT31;68825;51.978;5.654;2024-03-17T01:22:35;8.9;68.4
79356;SHT31;68825;51.978;5.654;2024-03-17T01:25:05;8.9;68.5
79356;SHT31;68825;51.978;5.654;2024-03-17T01:27:35;9.0;68.6
79356;SHT31;68825;51.978;5.654;2024-03-17T01:30:04;9.0;67.8
79356;SHT31;68825;51.978;5.654;2024-03-17T01:32:34;9.0;68.0
79356;SHT31;68825;51.978;5.654;2024-03-17T01:35:03;9.0;68.2
79356;SHT31;68825;51.978;5.654;2024-03-17T01:37:32;9.0;68.1
79356;SHT31;68825;51.978;5.654;2024-03-17T01:40:01;9.0;67.6
79356;SHT31;68825;51.978;5.654;2024-03-17T01:42:31;9.0;67.9
79356;SHT31;68825;51.978;5.654;2024-03-17T01:44:59;9.0;68.0
79356;SHT31;68825;51.978;5.654;2024-03-17T01:47:28;9.0;68.1
79356;SHT31;68825;51.978;5.654;2024-03-17T01:49:57;9.0;68.5
79356;SHT31;68825;51.978;5.654;2024-03-17T01:52:25;9.0;67.7
79356;SHT31;68825;51.978;5.654;2024-03-17T01:54:54;9.0;68.1
79356;SHT31;68825;51.978;5.654;2024-03-17T01:57:24;8.9;68.3
79356;SHT31;68825;51.978;5.654;2024-03-17T01:59:54;8.9;68.4
79356;SHT31;68825;51.978;5.654;2024-03-17T02:02:24;8.9;68.3
79356;SHT31;68825;51.978;5.654;2024-03-17T02:04:54;8.9;67.9
79356;SHT31;68825;51.978;5.654;2024-03-17T02:07:23;8.9;67.8
79356;SHT31;68825;51.978;5.654;2024-03-17T02:09:52;8.9;67.5
79356;SHT31;68825;51.978;5.654;2024-03-17T02:12:20;8.9;67.5
79356;SHT31;68825;51.978;5.654;2024-03-17T02:14:49;8.9;67.6
79356;SHT31;68825;51.978;5.654;2024-03-17T02:17:18;8.9;66.8
79356;SHT31;68825;51.978;5.654;2024-03-17T02:19:46;8.9;67.3
79356;SHT31;68825;51.978;5.654;2024-03-17T02:22:15;8.9;67.3
79356;SHT31;68825;51.978;5.654;2024-03-17T02:24:44;8.9;67.2
79356;SHT31;68825;51.978;5.654;2024-03-17T02:27:14;8.9;66.9
79356;SHT31;68825;51.978;5.654;2024-03-17T02:29:44;8.9;67.3
79356;SHT31;68825;51.978;5.654;2024-03-17T02:32:14;8.9;66.4
79356;SHT31;68825;51.978;5.654;2024-03-17T02:34:43;8.9;67.3
79356;SHT31;68825;51.978;5.654;2024-03-17T02:37:12;8.9;66.9
79356;SHT31;68825;51.978;5.654;2024-03-17T02:39:41;9.0;67.0
79356;SHT31;68825;51.978;5.654;2024-03-17T02:42:10;9.0;65.9
79356;SHT31;68825;51.978;5.654;2024-03-17T02:44:39;9.0;66.0
79356;SHT31;68825;51.978;5.654;2024-03-17T02:47:08;9.0;66.2
79356;SHT31;68825;51.978;5.654;2024-03-17T02:49:37;9.0;65.7
79356;SHT31;68825;51.978;5.654;2024-03-17T02:52:07;9.1;66.2
79356;SHT31;68825;51.978;5.654;2024-03-17T02:54:36;9.1;66.5
79356;SHT31;68825;51.978;5.654;2024-03-17T02:57:06;9.1;65.8
79356;SHT31;68825;51.978;5.654;2024-03-17T02:59:34;9.1;65.8
79356;SHT31;68825;51.978;5.654;2024-03-17T03:02:03;9.2;65.9
79356;SHT31;68825;51.978;5.654;2024-03-17T03:04:34;9.2;65.8
79356;SHT31;68825;51.978;5.654;2024-03-17T03:07:03;9.2;66.1
79356;SHT31;68825;51.978;5.654;2024-03-17T03:09:32;9.3;65.9
79356;SHT31;68825;51.978;5.654;2024-03-17T03:12:01;9.3;65.8
79356;SHT31;68825;51.978;5.654;2024-03-17T03:14:30;9.3;65.5
79356;SHT31;68825;51.978;5.654;2024-03-17T03:17:01;9.3;65.6
79356;SHT31;68825;51.978;5.654;2024-03-17T03:19:29;9.3;65.5
79356;SHT31;68825;51.978;5.654;2024-03-17T03:22:00;9.4;65.3
79356;SHT31;68825;51.978;5.654;2024-03-17T03:24:28;9.4;65.7
79356;SHT31;68825;51.978;5.654;2024-03-17T03:26:59;9.4;65.5
79356;SHT31;68825;51.978;5.654;2024-03-17T03:29:27;9.4;65.4
79356;SHT31;68825;51.978;5.654;2024-03-17T03:31:56;9.4;65.3
79356;SHT31;68825;51.978;5.654;2024-03-17T03:34:25;9.4;65.3
79356;SHT31;68825;51.978;5.654;2024-03-17T03:36:54;9.4;65.4
79356;SHT31;68825;51.978;5.654;2024-03-17T03:39:23;9.4;65.3
79356;SHT31;68825;51.978;5.654;2024-03-17T03:41:58;9.4;65.3
79356;SHT31;68825;51.978;5.654;2024-03-17T03:44:26;9.4;65.2
79356;SHT31;68825;51.978;5.654;2024-03-17T03:46:55;9.4;65.5
79356;SHT31;68825;51.978;5.654;2024-03-17T03:49:27;9.4;65.8
79356;SHT31;68825;51.978;5.654;2024-03-17T03:51:57;9.4;65.6
79356;SHT31;68825;51.978;5.654;2024-03-17T03:54:27;9.5;65.7
79356;SHT31;68825;51.978;5.654;2024-03-17T03:56:56;9.5;65.7
79356;SHT31;68825;51.978;5.654;2024-03-17T03:59:28;9.5;65.6
79356;SHT31;68825;51.978;5.654;2024-03-17T04:01:58;9.5;65.7
79356;SHT31;68825;51.978;5.654;2024-03-17T04:04:27;9.5;65.7
79356;SHT31;68825;51.978;5.654;2024-03-17T04:06:56;9.5;65.7
79356;SHT31;68825;51.978;5.654;2024-03-17T04:09:25;9.6;66.0
79356;SHT31;68825;51.978;5.654;2024-03-17T04:11:54;9.6;65.6
79356;SHT31;68825;51.978;5.654;2024-03-17T04:14:24;9.6;65.4
79356;SHT31;68825;51.978;5.654;2024-03-17T04:16:53;9.6;65.6
79356;SHT31;68825;51.978;5.654;2024-03-17T04:19:22;9.6;65.3
79356;SHT31;68825;51.978;5.654;2024-03-17T04:21:54;9.6;65.4
79356;SHT31;68825;51.978;5.654;2024-03-17T04:24:25;9.6;65.6
79356;SHT31;68825;51.978;5.654;2024-03-17T04:26:54;9.6;65.9
79356;SHT31;68825;51.978;5.654;2024-03-17T04:29:23;9.6;65.7
79356;SHT31;68825;51.978;5.654;2024-03-17T04:31:52;9.6;65.5
79356;SHT31;68825;51.978;5.654;2024-03-17T04:34:22;9.6;65.7
79356;SHT31;68825;51.978;5.654;2024-03-17T04:36:53;9.6;66.0
79356;SHT31;68825;51.978;5.654;2024-03-17T04:39:23;9.6;65.7
79356;SHT31;68825;51.978;5.654;2024-03-17T04:41:52;9.5;65.6
79356;SHT31;68825;51.978;5.654;2024-03-17T04:44:20;9.5;65.7
79356;SHT31;68825;51.978;5.654;2024-03-17T04:46:49;9.5;65.6
79356;SHT31;68825;51.978;5.654;2024-03-17T04:49:19;9.5;65.6
79356;SHT31;68825;51.978;5.654;2024-03-17T04:51:48;9.4;66.2
79356;SHT31;68825;51.978;5.654;2024-03-17T04:54:17;9.4;66.3
79356;SHT31;68825;51.978;5.654;2024-03-17T04:56:45;9.4;66.4
79356;SHT31;68825;51.978;5.654;2024-03-17T04:59:14;9.4;66.3
79356;SHT31;68825;51.978;5.654;2024-03-17T05:01:43;9.4;66.3
79356;SHT31;68825;51.978;5.654;2024-03-17T05:04:11;9.3;66.7
79356;SHT31;68825;51.978;5.654;2024-03-17T05:06:42;9.3;66.7
79356;SHT31;68825;51.978;5.654;2024-03-17T05:09:12;9.3;67.1
79356;SHT31;68825;51.978;5.654;2024-03-17T05:11:42;9.3;67.5
79356;SHT31;68825;51.978;5.654;2024-03-17T05:14:11;9.3;67.0
79356;SHT31;68825;51.978;5.654;2024-03-17T05:16:40;9.3;67.4
79356;SHT31;68825;51.978;5.654;2024-03-17T05:19:10;9.3;67.5
79356;SHT31;68825;51.978;5.654;2024-03-17T05:21:40;9.3;66.7
79356;SHT31;68825;51.978;5.654;2024-03-17T05:24:08;9.3;67.2
79356;SHT31;68825;51.978;5.654;2024-03-17T05:26:37;9.4;66.9
79356;SHT31;68825;51.978;5.654;2024-03-17T05:29:06;9.4;67.3
79356;SHT31;68825;51.978;5.654;2024-03-17T05:31:34;9.4;66.9
79356;SHT31;68825;51.978;5.654;2024-03-17T05:34:05;9.4;67.0
79356;SHT31;68825;51.978;5.654;2024-03-17T05:36:34;9.4;67.3
79356;SHT31;68825;51.978;5.654;2024-03-17T05:39:02;9.4;67.0
79356;SHT31;68825;51.978;5.654;2024-03-17T05:41:31;9.4;67.4
79356;SHT31;68825;51.978;5.654;2024-03-17T05:44:02;9.4;67.2
79356;SHT31;68825;51.978;5.654;2024-03-17T05:46:31;9.4;66.9
79356;SHT31;68825;51.978;5.654;2024-03-17T05:49:00;9.4;67.2
79356;SHT31;68825;51.978;5.654;2024-03-17T05:51:30;9.4;67.1
79356;SHT31;68825;51.978;5.654;2024-03-17T05:53:58;9.4;67.6
79356;SHT31;68825;51.978;5.654;2024-03-17T05:56:27;9.4;67.2
79356;SHT31;68825;51.978;5.654;2024-03-17T05:58:55;9.4;67.3
79356;SHT31;68825;51.978;5.654;2024-03-17T06:01:26;9.4;67.2
79356;SHT31;68825;51.978;5.654;2024-03-17T06:03:56;9.4;67.3
79356;SHT31;68825;51.978;5.654;2024-03-17T06:06:26;9.4;67.4
79356;SHT31;68825;51.978;5.654;2024-03-17T06:08:54;9.4;67.5
79356;SHT31;68825;51.978;5.654;2024-03-17T06:11:23;9.4;67.5
79356;SHT31;68825;51.978;5.654;2024-03-17T06:13:51;9.4;67.3
79356;SHT31;68825;51.978;5.654;2024-03-17T06:16:20;9.4;66.8
79356;SHT31;68825;51.978;5.654;2024-03-17T06:18:49;9.4;67.3
79356;SHT31;68825;51.978;5.654;2024-03-17T06:21:18;9.4;67.6
79356;SHT31;68825;51.978;5.654;2024-03-17T06:23:48;9.4;67.1
79356;SHT31;68825;51.978;5.654;2024-03-17T06:26:17;9.4;66.9
79356;SHT31;68825;51.978;5.654;2024-03-17T06:28:47;9.5;67.1
79356;SHT31;68825;51.978;5.654;2024-03-17T06:31:15;9.5;67.4
79356;SHT31;68825;51.978;5.654;2024-03-17T06:33:44;9.5;67.1
79356;SHT31;68825;51.978;5.654;2024-03-17T06:36:13;9.5;66.6
79356;SHT31;68825;51.978;5.654;2024-03-17T06:38:44;9.5;66.8
79356;SHT31;68825;51.978;5.654;2024-03-17T06:41:12;9.5;66.9
79356;SHT31;68825;51.978;5.654;2024-03-17T06:43:42;9.5;66.6
79356;SHT31;68825;51.978;5.654;2024-03-17T06:46:11;9.6;66.5
79356;SHT31;68825;51.978;5.654;2024-03-17T06:48:40;9.6;66.2
79356;SHT31;68825;51.978;5.654;2024-03-17T06:51:11;9.6;66.7
79356;SHT31;68825;51.978;5.654;2024-03-17T06:53:39;9.6;66.4
79356;SHT31;68825;51.978;5.654;2024-03-17T06:56:08;9.6;66.5
79356;SHT31;68825;51.978;5.654;2024-03-17T06:58:36;9.6;66.5
79356;SHT31;68825;51.978;5.654;2024-03-17T07:01:05;9.6;66.5
79356;SHT31;68825;51.978;5.654;2024-03-17T07:03:34;9.6;66.5
79356;SHT31;68825;51.978;5.654;2024-03-17T07:06:02;9.7;66.8
79356;SHT31;68825;51.978;5.654;2024-03-17T07:08:34;9.7;66.7
79356;SHT31;68825;51.978;5.654;2024-03-17T07:11:05;9.7;67.1
79356;SHT31;68825;51.978;5.654;2024-03-17T07:13:37;9.8;66.8
79356;SHT31;68825;51.978;5.654;2024-03-17T07:16:09;9.8;66.4
79356;SHT31;68825;51.978;5.654;2024-03-17T07:18:38;9.8;67.1
79356;SHT31;68825;51.978;5.654;2024-03-17T07:21:10;9.9;67.0
79356;SHT31;68825;51.978;5.654;2024-03-17T07:23:39;9.9;67.0
79356;SHT31;68825;51.978;5.654;2024-03-17T07:26:08;9.9;66.9
79356;SHT31;68825;51.978;5.654;2024-03-17T07:28:37;9.9;67.1
79356;SHT31;68825;51.978;5.654;2024-03-17T07:31:09;10.0;67.0
79356;SHT31;68825;51.978;5.654;2024-03-17T07:33:38;10.0;67.6
79356;SHT31;68825;51.978;5.654;2024-03-17T07:36:08;10.1;67.2
79356;SHT31;68825;51.978;5.654;2024-03-17T07:38:37;10.1;67.1
79356;SHT31;68825;51.978;5.654;2024-03-17T07:41:07;10.1;67.1
79356;SHT31;68825;51.978;5.654;2024-03-17T07:43:37;10.2;67.1
79356;SHT31;68825;51.978;5.654;2024-03-17T07:46:08;10.2;67.2
79356;SHT31;68825;51.978;5.654;2024-03-17T07:48:40;10.2;67.3
79356;SHT31;68825;51.978;5.654;2024-03-17T07:51:11;10.3;67.1
79356;SHT31;68825;51.978;5.654;2024-03-17T07:53:41;10.3;66.8
79356;SHT31;68825;51.978;5.654;2024-03-17T07:56:12;10.4;67.2
79356;SHT31;68825;51.978;5.654;2024-03-17T07:58:43;10.4;66.2
79356;SHT31;68825;51.978;5.654;2024-03-17T08:01:13;10.5;65.5
79356;SHT31;68825;51.978;5.654;2024-03-17T08:03:45;10.5;65.5
79356;SHT31;68825;51.978;5.654;2024-03-17T08:06:15;10.6;65.7
79356;SHT31;68825;51.978;5.654;2024-03-17T08:08:44;10.6;65.9
79356;SHT31;68825;51.978;5.654;2024-03-17T08:11:13;10.7;64.8
79356;SHT31;68825;51.978;5.654;2024-03-17T08:13:42;10.7;64.6
79356;SHT31;68825;51.978;5.654;2024-03-17T08:16:10;10.8;64.6
79356;SHT31;68825;51.978;5.654;2024-03-17T08:18:39;10.9;64.7
79356;SHT31;68825;51.978;5.654;2024-03-17T08:21:08;11.0;64.7
79356;SHT31;68825;51.978;5.654;2024-03-17T08:23:37;11.1;64.5
79356;SHT31;68825;51.978;5.654;2024-03-17T08:26:09;11.1;63.8
79356;SHT31;68825;51.978;5.654;2024-03-17T08:28:37;11.2;64.1
79356;SHT31;68825;51.978;5.654;2024-03-17T08:31:08;11.3;63.9
79356;SHT31;68825;51.978;5.654;2024-03-17T08:33:37;11.3;63.4
79356;SHT31;68825;51.978;5.654;2024-03-17T08:36:08;11.4;63.6
79356;SHT31;68825;51.978;5.654;2024-03-17T08:38:37;11.5;62.9
79356;SHT31;68825;51.978;5.654;2024-03-17T08:41:08;11.5;62.4
79356;SHT31;68825;51.978;5.654;2024-03-17T08:43:37;11.5;62.4
79356;SHT31;68825;51.978;5.654;2024-03-17T08:46:09;11.6;62.1
79356;SHT31;68825;51.978;5.654;2024-03-17T08:48:41;11.6;62.6
79356;SHT31;68825;51.978;5.654;2024-03-17T08:51:10;11.6;62.7
79356;SHT31;68825;51.978;5.654;2024-03-17T08:53:38;11.7;62.9
79356;SHT31;68825;51.978;5.654;2024-03-17T08:56:08;11.7;63.0
79356;SHT31;68825;51.978;5.654;2024-03-17T08:58:36;11.8;62.2
79356;SHT31;68825;51.978;5.654;2024-03-17T09:01:06;11.8;62.4
79356;SHT31;68825;51.978;5.654;2024-03-17T09:03:35;11.8;62.5
79356;SHT31;68825;51.978;5.654;2024-03-17T09:06:10;11.9;62.6
79356;SHT31;68825;51.978;5.654;2024-03-17T09:08:41;11.9;62.5
79356;SHT31;68825;51.978;5.654;2024-03-17T09:11:13;12.0;63.1
79356;SHT31;68825;51.978;5.654;2024-03-17T09:13:44;12.0;62.7
79356;SHT31;68825;51.978;5.654;2024-03-17T09:16:12;12.0;62.6
79356;SHT31;68825;51.978;5.654;2024-03-17T09:18:41;12.1;62.2
79356;SHT31;68825;51.978;5.654;2024-03-17T09:21:09;12.1;62.1
79356;SHT31;68825;51.978;5.654;2024-03-17T09:23:39;12.2;62.5
79356;SHT31;68825;51.978;5.654;2024-03-17T09:26:09;12.2;63.0
79356;SHT31;68825;51.978;5.654;2024-03-17T09:28:40;12.2;62.5
79356;SHT31;68825;51.978;5.654;2024-03-17T09:31:11;12.3;62.3
79356;SHT31;68825;51.978;5.654;2024-03-17T09:33:39;12.3;62.3
79356;SHT31;68825;51.978;5.654;2024-03-17T09:36:09;12.4;62.1
79356;SHT31;68825;51.978;5.654;2024-03-17T09:38:41;12.4;61.6
79356;SHT31;68825;51.978;5.654;2024-03-17T09:41:22;12.5;61.2
79356;SHT31;68825;51.978;5.654;2024-03-17T09:43:53;12.5;61.1
79356;SHT31;68825;51.978;5.654;2024-03-17T09:46:23;12.6;60.5
79356;SHT31;68825;51.978;5.654;2024-03-17T09:48:53;12.6;61.4
79356;SHT31;68825;51.978;5.654;2024-03-17T09:51:24;12.7;59.8
79356;SHT31;68825;51.978;5.654;2024-03-17T09:53:53;12.7;60.6
79356;SHT31;68825;51.978;5.654;2024-03-17T09:56:21;12.8;61.2
79356;SHT31;68825;51.978;5.654;2024-03-17T09:58:52;12.8;61.3
79356;SHT31;68825;51.978;5.654;2024-03-17T10:01:20;12.9;60.6
79356;SHT31;68825;51.978;5.654;2024-03-17T10:03:51;13.0;60.8
79356;SHT31;68825;51.978;5.654;2024-03-17T10:06:22;13.0;60.1
79356;SHT31;68825;51.978;5.654;2024-03-17T10:08:52;13.1;59.8
79356;SHT31;68825;51.978;5.654;2024-03-17T10:11:22;13.2;59.3
79356;SHT31;68825;51.978;5.654;2024-03-17T10:14:02;13.3;59.5
79356;SHT31;68825;51.978;5.654;2024-03-17T10:16:32;13.4;59.1
79356;SHT31;68825;51.978;5.654;2024-03-17T10:19:09;13.5;59.3
79356;SHT31;68825;51.978;5.654;2024-03-17T10:21:41;13.5;59.2
79356;SHT31;68825;51.978;5.654;2024-03-17T10:24:11;13.6;58.8
79356;SHT31;68825;51.978;5.654;2024-03-17T10:26:46;13.7;59.0
79356;SHT31;68825;51.978;5.654;2024-03-17T10:29:25;13.8;58.7
79356;SHT31;68825;51.978;5.654;2024-03-17T10:31:57;13.8;58.4
79356;SHT31;68825;51.978;5.654;2024-03-17T10:34:28;13.9;57.2
79356;SHT31;68825;51.978;5.654;2024-03-17T10:37:07;14.0;58.3
79356;SHT31;68825;51.978;5.654;2024-03-17T10:39:38;14.0;58.5
79356;SHT31;68825;51.978;5.654;2024-03-17T10:42:09;14.1;58.3
79356;SHT31;68825;51.978;5.654;2024-03-17T10:44:39;14.1;57.8
79356;SHT31;68825;51.978;5.654;2024-03-17T10:47:17;14.2;58.5
79356;SHT31;68825;51.978;5.654;2024-03-17T10:49:50;14.2;57.8
79356;SHT31;68825;51.978;5.654;2024-03-17T10:52:23;14.2;57.4
79356;SHT31;68825;51.978;5.654;2024-03-17T10:54:55;14.3;57.3
79356;SHT31;68825;51.978;5.654;2024-03-17T10:57:35;14.3;57.9
79356;SHT31;68825;51.978;5.654;2024-03-17T11:00:07;14.3;57.3
79356;SHT31;68825;51.978;5.654;2024-03-17T11:02:36;14.4;57.2
79356;SHT31;68825;51.978;5.654;2024-03-17T11:05:16;14.4;57.9
79356;SHT31;68825;51.978;5.654;2024-03-17T11:07:46;14.4;58.4
79356;SHT31;68825;51.978;5.654;2024-03-17T11:10:19;14.4;58.1
79356;SHT31;68825;51.978;5.654;2024-03-17T11:12:50;14.4;58.8
79356;SHT31;68825;51.978;5.654;2024-03-17T11:15:39;14.5;58.4
79356;SHT31;68825;51.978;5.654;2024-03-17T11:19:17;14.5;58.7
79356;SHT31;68825;51.978;5.654;2024-03-17T11:21:46;14.5;58.0
79356;SHT31;68825;51.978;5.654;2024-03-17T11:24:20;14.6;57.1
79356;SHT31;68825;51.978;5.654;2024-03-17T11:26:49;14.6;58.1
79356;SHT31;68825;51.978;5.654;2024-03-17T11:29:30;14.6;57.2
79356;SHT31;68825;51.978;5.654;2024-03-17T11:31:59;14.6;57.1
79356;SHT31;68825;51.978;5.654;2024-03-17T11:34:32;14.6;57.0
79356;SHT31;68825;51.978;5.654;2024-03-17T11:37:03;14.6;57.2
79356;SHT31;68825;51.978;5.654;2024-03-17T11:39:54;14.7;57.9
79356;SHT31;68825;51.978;5.654;2024-03-17T11:42:27;14.7;57.2
79356;SHT31;68825;51.978;5.654;2024-03-17T11:45:01;14.7;56.5
79356;SHT31;68825;51.978;5.654;2024-03-17T11:47:37;14.7;56.7
79356;SHT31;68825;51.978;5.654;2024-03-17T11:50:08;14.8;56.9
79356;SHT31;68825;51.978;5.654;2024-03-17T11:52:39;14.8;57.5
79356;SHT31;68825;51.978;5.654;2024-03-17T11:55:17;14.8;57.9
79356;SHT31;68825;51.978;5.654;2024-03-17T11:57:49;14.8;57.8
79356;SHT31;68825;51.978;5.654;2024-03-17T12:00:23;14.8;57.3
79356;SHT31;68825;51.978;5.654;2024-03-17T12:02:52;14.8;56.6
79356;SHT31;68825;51.978;5.654;2024-03-17T12:05:22;14.8;57.0
79356;SHT31;68825;51.978;5.654;2024-03-17T12:07:51;14.8;57.5
79356;SHT31;68825;51.978;5.654;2024-03-17T12:10:21;14.7;57.4
79356;SHT31;68825;51.978;5.654;2024-03-17T12:12:49;14.7;57.2
79356;SHT31;68825;51.978;5.654;2024-03-17T12:15:19;14.7;57.9
79356;SHT31;68825;51.978;5.654;2024-03-17T12:17:52;14.6;58.2
79356;SHT31;68825;51.978;5.654;2024-03-17T12:20:22;14.6;58.5
79356;SHT31;68825;51.978;5.654;2024-03-17T12:22:51;14.6;58.8
79356;SHT31;68825;51.978;5.654;2024-03-17T12:25:22;14.6;58.7
79356;SHT31;68825;51.978;5.654;2024-03-17T12:27:53;14.6;59.4
79356;SHT31;68825;51.978;5.654;2024-03-17T12:30:21;14.6;59.5
79356;SHT31;68825;51.978;5.654;2024-03-17T12:32:51;14.6;59.8
79356;SHT31;68825;51.978;5.654;2024-03-17T12:35:22;14.6;59.2
79356;SHT31;68825;51.978;5.654;2024-03-17T12:37:51;14.6;59.9
79356;SHT31;68825;51.978;5.654;2024-03-17T12:40:22;14.7;58.8
79356;SHT31;68825;51.978;5.654;2024-03-17T12:42:51;14.7;59.8
79356;SHT31;68825;51.978;5.654;2024-03-17T12:45:22;14.7;59.2
79356;SHT31;68825;51.978;5.654;2024-03-17T12:47:51;14.8;59.9
79356;SHT31;68825;51.978;5.654;2024-03-17T12:50:21;14.8;59.7
79356;SHT31;68825;51.978;5.654;2024-03-17T12:52:55;14.8;59.7
79356;SHT31;68825;51.978;5.654;2024-03-17T12:55:26;14.9;59.3
79356;SHT31;68825;51.978;5.654;2024-03-17T12:58:11;14.9;59.5
79356;SHT31;68825;51.978;5.654;2024-03-17T13:01:00;14.9;59.1
79356;SHT31;68825;51.978;5.654;2024-03-17T13:03:31;14.9;59.0
79356;SHT31;68825;51.978;5.654;2024-03-17T13:06:01;14.9;58.8
79356;SHT31;68825;51.978;5.654;2024-03-17T13:08:33;14.9;59.0
79356;SHT31;68825;51.978;5.654;2024-03-17T13:11:03;14.9;58.9
79356;SHT31;68825;51.978;5.654;2024-03-17T13:13:35;14.9;58.9
79356;SHT31;68825;51.978;5.654;2024-03-17T13:16:05;14.9;58.8
79356;SHT31;68825;51.978;5.654;2024-03-17T13:18:35;14.9;58.6
79356;SHT31;68825;51.978;5.654;2024-03-17T13:21:03;15.0;58.6
79356;SHT31;68825;51.978;5.654;2024-03-17T13:23:32;15.0;58.0
79356;SHT31;68825;51.978;5.654;2024-03-17T13:26:01;15.0;58.0
79356;SHT31;68825;51.978;5.654;2024-03-17T13:28:30;15.0;58.6
79356;SHT31;68825;51.978;5.654;2024-03-17T13:30:59;15.0;58.2
79356;SHT31;68825;51.978;5.654;2024-03-17T13:33:30;15.0;58.8
79356;SHT31;68825;51.978;5.654;2024-03-17T13:35:59;15.0;59.4
79356;SHT31;68825;51.978;5.654;2024-03-17T13:38:28;15.0;59.0
79356;SHT31;68825;51.978;5.654;2024-03-17T13:40:57;15.0;59.4
79356;SHT31;68825;51.978;5.654;2024-03-17T13:43:25;15.0;59.1
79356;SHT31;68825;51.978;5.654;2024-03-17T13:45:54;15.0;59.5
79356;SHT31;68825;51.978;5.654;2024-03-17T13:48:25;15.0;58.8
79356;SHT31;68825;51.978;5.654;2024-03-17T13:50:55;15.0;58.7
79356;SHT31;68825;51.978;5.654;2024-03-17T13:53:24;15.0;59.3
79356;SHT31;68825;51.978;5.654;2024-03-17T13:55:52;15.0;59.2
79356;SHT31;68825;51.978;5.654;2024-03-17T13:58:21;15.0;59.3
79356;SHT31;68825;51.978;5.654;2024-03-17T14:00:49;15.0;58.9
79356;SHT31;68825;51.978;5.654;2024-03-17T14:03:21;15.0;59.4
79356;SHT31;68825;51.978;5.654;2024-03-17T14:05:51;15.0;60.1
79356;SHT31;68825;51.978;5.654;2024-03-17T14:08:20;15.0;60.1
79356;SHT31;68825;51.978;5.654;2024-03-17T14:10:50;15.1;59.8
79356;SHT31;68825;51.978;5.654;2024-03-17T14:13:19;15.1;59.6
79356;SHT31;68825;51.978;5.654;2024-03-17T14:15:48;15.1;59.1
79356;SHT31;68825;51.978;5.654;2024-03-17T14:18:16;15.1;60.0
79356;SHT31;68825;51.978;5.654;2024-03-17T14:20:45;15.1;59.3
79356;SHT31;68825;51.978;5.654;2024-03-17T14:23:14;15.1;59.0
79356;SHT31;68825;51.978;5.654;2024-03-17T14:25:42;15.2;59.0
79356;SHT31;68825;51.978;5.654;2024-03-17T14:28:13;15.2;58.8
79356;SHT31;68825;51.978;5.654;2024-03-17T14:30:41;15.2;59.1
79356;SHT31;68825;51.978;5.654;2024-03-17T14:33:12;15.3;58.5
79356;SHT31;68825;51.978;5.654;2024-03-17T14:35:40;15.3;58.4
79356;SHT31;68825;51.978;5.654;2024-03-17T14:38:10;15.3;58.3
79356;SHT31;68825;51.978;5.654;2024-03-17T14:40:41;15.4;58.2
79356;SHT31;68825;51.978;5.654;2024-03-17T14:43:09;15.4;58.8
79356;SHT31;68825;51.978;5.654;2024-03-17T14:45:38;15.5;59.5
79356;SHT31;68825;51.978;5.654;2024-03-17T14:48:07;15.5;58.2
79356;SHT31;68825;51.978;5.654;2024-03-17T14:50:36;15.6;58.0
79356;SHT31;68825;51.978;5.654;2024-03-17T14:53:09;15.6;57.8
79356;SHT31;68825;51.978;5.654;2024-03-17T14:55:37;15.6;57.4
79356;SHT31;68825;51.978;5.654;2024-03-17T14:58:06;15.7;57.9
79356;SHT31;68825;51.978;5.654;2024-03-17T15:00:36;15.7;57.7
79356;SHT31;68825;51.978;5.654;2024-03-17T15:03:05;15.7;57.3
79356;SHT31;68825;51.978;5.654;2024-03-17T15:05:35;15.7;57.2
79356;SHT31;68825;51.978;5.654;2024-03-17T15:08:04;15.7;57.2
79356;SHT31;68825;51.978;5.654;2024-03-17T15:10:32;15.7;57.9
79356;SHT31;68825;51.978;5.654;2024-03-17T15:13:01;15.7;57.7
79356;SHT31;68825;51.978;5.654;2024-03-17T15:15:30;15.7;57.4
79356;SHT31;68825;51.978;5.654;2024-03-17T15:17:58;15.7;57.7
79356;SHT31;68825;51.978;5.654;2024-03-17T15:20:27;15.7;58.0
79356;SHT31;68825;51.978;5.654;2024-03-17T15:22:55;15.7;58.0
79356;SHT31;68825;51.978;5.654;2024-03-17T15:25:24;15.7;58.0
79356;SHT31;68825;51.978;5.654;2024-03-17T15:27:52;15.8;58.0
79356;SHT31;68825;51.978;5.654;2024-03-17T15:30:21;15.8;57.6
79356;SHT31;68825;51.978;5.654;2024-03-17T15:32:52;15.8;57.6
79356;SHT31;68825;51.978;5.654;2024-03-17T15:35:29;15.8;57.5
79356;SHT31;68825;51.978;5.654;2024-03-17T15:38:02;15.8;58.2
79356;SHT31;68825;51.978;5.654;2024-03-17T15:40:33;15.8;57.8
79356;SHT31;68825;51.978;5.654;2024-03-17T15:43:01;15.8;57.7
79356;SHT31;68825;51.978;5.654;2024-03-17T15:45:30;15.8;58.5
79356;SHT31;68825;51.978;5.654;2024-03-17T15:47:59;15.8;58.8
79356;SHT31;68825;51.978;5.654;2024-03-17T15:50:28;15.8;58.3
79356;SHT31;68825;51.978;5.654;2024-03-17T15:52:57;15.8;58.5
79356;SHT31;68825;51.978;5.654;2024-03-17T15:55:26;15.8;59.0
79356;SHT31;68825;51.978;5.654;2024-03-17T15:57:54;15.8;58.9
79356;SHT31;68825;51.978;5.654;2024-03-17T16:00:23;15.8;58.7
79356;SHT31;68825;51.978;5.654;2024-03-17T16:02:51;15.8;58.8
79356;SHT31;68825;51.978;5.654;2024-03-17T16:05:22;15.8;59.5
79356;SHT31;68825;51.978;5.654;2024-03-17T16:07:54;15.8;59.1
79356;SHT31;68825;51.978;5.654;2024-03-17T16:10:26;15.8;59.1
79356;SHT31;68825;51.978;5.654;2024-03-17T16:12:56;15.8;59.1
79356;SHT31;68825;51.978;5.654;2024-03-17T16:15:26;15.8;59.1
79356;SHT31;68825;51.978;5.654;2024-03-17T16:17:56;15.8;59.2
79356;SHT31;68825;51.978;5.654;2024-03-17T16:20:59;15.8;59.0
79356;SHT31;68825;51.978;5.654;2024-03-17T16:23:29;15.8;58.6
79356;SHT31;68825;51.978;5.654;2024-03-17T16:26:00;15.8;59.0
79356;SHT31;68825;51.978;5.654;2024-03-17T16:28:28;15.7;59.0